Time;durP1;ratioP1;P1;durP2;ratioP2;P2;SDS_P1;SDS_P2;PMS_P1;PMS_P2;Temp;Humidity;BMP_temperature;BMP_pressure;BME280_temperature;BME280_humidity;BME280_pressure;Samples;Min_cycle;Max_cycle;Signal;HPM_P1;HPM_P2
2023/12/03 00:00:13;;;;;;;5.70;4.50;;;19.00;44.40;;;;;;5092869;28;20052;-29
2023/12/03 00:02:42;;;;;;;6.68;4.63;;;;;;;;;;5093226;28;20040;-29
2023/12/03 00:05:09;;;;;;;6.30;4.78;;;19.50;48.50;;;;;;5093153;28;20052;-28
2023/12/03 00:07:35;;;;;;;5.95;4.30;;;19.00;64.60;;;;;;5093285;28;20044;-31
2023/12/03 00:10:05;;;;;;;7.05;4.80;;;18.90;44.40;;;;;;5092523;28;20052;-27
2023/12/03 00:12:32;;;;;;;6.35;4.40;;;20.40;65.30;;;;;;5092116;28;20040;-32
2023/12/03 00:14:59;;;;;;;6.38;4.75;;;;;;;;;;5072708;28;20559;-29
2023/12/03 00:17:26;;;;;;;7.85;4.80;;;;;;;;;;5054819;28;20477;-29
2023/12/03 00:19:53;;;;;;;6.15;4.30;;;18.80;47.30;;;;;;5072262;28;20055;-29
2023/12/03 00:22:20;;;;;;;6.45;4.20;;;20.20;65.60;;;;;;5072696;28;20052;-26
2023/12/03 00:24:47;;;;;;;5.68;4.25;;;18.70;46.60;;;;;;5072509;28;20079;-26
2023/12/03 00:27:15;;;;;;;5.80;4.18;;;18.00;64.80;;;;;;5072583;28;20055;-26
2023/12/03 00:29:42;;;;;;;6.03;4.22;;;18.60;65.00;;;;;;5073150;28;20048;-26
2023/12/03 00:32:09;;;;;;;5.97;4.20;;;;;;;;;;5072353;28;20094;-25
2023/12/03 00:34:36;;;;;;;5.63;4.05;;;18.50;64.60;;;;;;5072417;28;20052;-26
2023/12/03 00:37:03;;;;;;;5.38;4.18;;;18.50;44.80;;;;;;5081766;28;20105;-25
2023/12/03 00:39:30;;;;;;;6.18;4.22;;;18.70;65.20;;;;;;5092243;28;20055;-25
2023/12/03 00:41:57;;;;;;;5.32;3.88;;;18.30;65.20;;;;;;5092952;28;20048;-26
2023/12/03 00:44:25;;;;;;;6.20;4.55;;;18.70;44.70;;;;;;5092435;28;20517;-27
2023/12/03 00:46:52;;;;;;;6.13;3.90;;;18.60;61.70;;;;;;5078642;28;20139;-26
2023/12/03 00:49:19;;;;;;;5.75;4.18;;;;;;;;;;5071845;28;20123;-25
2023/12/03 00:51:46;;;;;;;5.10;4.03;;;;;;;;;;5071854;28;20106;-26
2023/12/03 00:54:13;;;;;;;5.25;3.78;;;19.80;65.80;;;;;;5078831;28;20048;-26
2023/12/03 00:56:40;;;;;;;5.97;4.28;;;18.50;54.20;;;;;;5092467;28;20051;-27
2023/12/03 00:59:07;;;;;;;4.53;3.80;;;17.80;65.10;;;;;;5091628;28;20044;-25
2023/12/03 01:01:35;;;;;;;5.82;4.25;;;19.60;47.30;;;;;;5091862;28;20062;-28
2023/12/03 01:04:03;;;;;;;6.32;4.15;;;;;;;;;;5072654;28;20048;-26
2023/12/03 01:06:29;;;;;;;5.43;3.85;;;18.40;65.60;;;;;;5071903;28;20511;-25
2023/12/03 01:08:57;;;;;;;5.80;3.97;;;;;;;;;;5071808;28;20048;-26
2023/12/03 01:11:23;;;;;;;5.35;3.60;;;18.30;65.20;;;;;;5071798;28;20449;-25
2023/12/03 01:13:51;;;;;;;5.18;4.13;;;;;;;;;;5071640;28;20490;-29
2023/12/03 01:16:18;;;;;;;5.10;3.95;;;18.00;65.40;;;;;;5071631;28;20416;-26
2023/12/03 01:18:46;;;;;;;5.32;3.90;;;18.40;61.90;;;;;;5072717;28;20068;-25
2023/12/03 01:21:13;;;;;;;4.68;3.53;;;18.30;65.30;;;;;;5071623;28;20052;-26
2023/12/03 01:23:41;;;;;;;4.80;3.63;;;;;;;;;;5071933;28;20045;-30
2023/12/03 01:26:08;;;;;;;5.82;4.05;;;17.80;65.10;;;;;;5070966;28;20045;-25
2023/12/03 01:28:35;;;;;;;4.75;3.92;;;18.40;64.60;;;;;;5071508;28;20106;-26
2023/12/03 01:31:02;;;;;;;5.05;3.85;;;18.30;65.40;;;;;;5070828;28;20067;-25
2023/12/03 01:33:29;;;;;;;5.55;3.80;;;18.10;45.70;;;;;;5071186;28;20044;-28
2023/12/03 01:35:57;;;;;;;5.20;3.88;;;18.30;66.30;;;;;;5072768;28;20497;-26
2023/12/03 01:38:24;;;;;;;4.85;3.75;;;18.10;66.30;;;;;;5091162;28;20048;-25
2023/12/03 01:40:54;;;;;;;5.00;3.80;;;18.10;65.90;;;;;;5091690;28;20048;-25
2023/12/03 01:43:21;;;;;;;4.85;3.88;;;18.30;66.00;;;;;;5091749;28;20052;-27
2023/12/03 01:45:47;;;;;;;4.63;3.60;;;18.00;51.50;;;;;;5091709;28;20094;-28
2023/12/03 01:48:14;;;;;;;4.20;3.22;;;18.70;66.50;;;;;;5091539;28;20447;-26
2023/12/03 01:50:42;;;;;;;5.43;3.88;;;;;;;;;;5091141;28;20585;-29
2023/12/03 01:53:10;;;;;;;5.15;3.97;;;18.50;45.00;;;;;;5072630;28;20083;-26
2023/12/03 01:55:37;;;;;;;4.10;2.80;;;18.50;66.20;;;;;;5079371;28;20497;-26
2023/12/03 01:58:04;;;;;;;4.30;3.25;;;;;;;;;;5091516;28;20048;-28
2023/12/03 02:00:32;;;;;;;3.90;3.30;;;18.30;65.80;;;;;;5091266;28;20558;-26
2023/12/03 02:02:59;;;;;;;4.10;3.20;;;;;;;;;;5091477;28;20054;-26
2023/12/03 02:05:26;;;;;;;4.13;3.10;;;;;;;;;;5091361;28;20501;-27
2023/12/03 02:07:53;;;;;;;4.50;3.40;;;18.70;66.20;;;;;;5086368;28;20555;-26
2023/12/03 02:10:21;;;;;;;3.83;2.88;;;18.70;45.00;;;;;;5070905;28;20052;-29
2023/12/03 02:12:48;;;;;;;3.42;2.63;;;18.70;45.00;;;;;;5071112;28;20106;-27
2023/12/03 02:15:16;;;;;;;3.50;3.03;;;;;;;;;;5071287;28;20076;-26
2023/12/03 02:17:43;;;;;;;3.50;2.90;;;18.80;56.50;;;;;;5071174;28;20071;-26
2023/12/03 02:20:11;;;;;;;3.70;2.78;;;18.50;65.90;;;;;;5071017;28;20101;-26
2023/12/03 02:22:42;;;;;;;3.10;2.50;;;20.00;66.20;;;;;;5071059;28;20049;-26
2023/12/03 02:25:09;;;;;;;2.97;2.50;;;18.90;53.20;;;;;;5072323;28;20498;-26
2023/12/03 02:27:36;;;;;;;3.03;2.40;;;19.30;65.30;;;;;;5052942;28;20591;-26
2023/12/03 02:30:03;;;;;;;3.17;2.70;;;19.00;44.70;;;;;;5070747;28;20486;-26
2023/12/03 02:32:30;;;;;;;4.70;2.70;;;19.00;65.40;;;;;;5070901;28;20090;-26
2023/12/03 02:34:57;;;;;;;3.80;2.75;;;18.10;55.10;;;;;;5071333;28;20460;-26
2023/12/03 02:37:24;;;;;;;3.85;2.90;;;19.00;65.30;;;;;;5085165;28;20462;-27
2023/12/03 02:39:52;;;;;;;3.92;2.58;;;19.10;44.50;;;;;;5094650;28;20634;-29
2023/12/03 02:42:19;;;;;;;2.75;2.22;;;;;;;;;;5093818;28;20128;-28
2023/12/03 02:44:46;;;;;;;2.97;2.55;;;18.80;64.30;;;;;;5094597;28;20048;-26
2023/12/03 02:47:13;;;;;;;3.58;2.72;;;;;;;;;;5095026;28;20464;-27
2023/12/03 02:49:41;;;;;;;3.40;2.67;;;;;;;;;;5094507;28;20443;-26
2023/12/03 02:52:09;;;;;;;3.42;2.70;;;19.10;48.20;;;;;;5094482;28;20052;-26
2023/12/03 02:54:37;;;;;;;3.03;2.60;;;19.40;64.60;;;;;;5094341;28;20555;-26
2023/12/03 02:57:06;;;;;;;3.40;2.50;;;19.30;64.80;;;;;;5094562;28;20059;-26
2023/12/03 02:59:33;;;;;;;3.08;2.30;;;19.30;64.80;;;;;;5075294;28;20473;-26
2023/12/03 03:02:00;;;;;;;3.55;2.78;;;;;;;;;;5074226;28;20497;-28
2023/12/03 03:04:27;;;;;;;3.15;2.53;;;;;;;;;;5074011;28;20404;-26
2023/12/03 03:06:54;;;;;;;2.80;2.20;;;19.60;45.20;;;;;;5075382;28;20044;-27
2023/12/03 03:09:21;;;;;;;2.97;2.20;;;18.90;64.30;;;;;;5073888;28;20444;-26
2023/12/03 03:11:47;;;;;;;3.08;2.22;;;19.50;64.40;;;;;;5074134;28;20625;-26
2023/12/03 03:14:16;;;;;;;2.33;1.95;;;19.50;58.90;;;;;;5075020;28;20064;-26
2023/12/03 03:16:42;;;;;;;3.03;2.25;;;20.00;64.70;;;;;;5073765;28;20460;-28
2023/12/03 03:19:09;;;;;;;3.40;2.50;;;19.60;64.50;;;;;;5073793;28;20466;-26
2023/12/03 03:21:38;;;;;;;2.67;2.22;;;19.10;43.90;;;;;;5073806;28;20102;-28
2023/12/03 03:24:05;;;;;;;2.63;2.28;;;19.70;64.60;;;;;;5073659;28;20049;-26
2023/12/03 03:26:32;;;;;;;2.88;2.20;;;;;;;;;;5073723;28;20524;-28
2023/12/03 03:28:59;;;;;;;2.88;2.20;;;19.60;64.00;;;;;;5073903;28;20443;-27
2023/12/03 03:31:28;;;;;;;2.70;2.00;;;19.70;44.20;;;;;;5074652;28;20097;-29
2023/12/03 03:33:55;;;;;;;2.63;2.08;;;19.70;44.30;;;;;;5073501;28;20514;-27
2023/12/03 03:36:22;;;;;;;3.03;2.20;;;20.60;64.30;;;;;;5077250;28;20126;-26
2023/12/03 03:38:49;;;;;;;3.42;2.00;;;;;;;;;;5093323;28;20120;-27
2023/12/03 03:41:16;;;;;;;2.55;2.00;;;;;;;;;;5074855;28;20127;-26
2023/12/03 03:43:43;;;;;;;2.20;2.00;;;20.60;52.30;;;;;;5073469;28;20114;-27
2023/12/03 03:46:11;;;;;;;3.05;2.10;;;19.70;64.00;;;;;;5055392;28;20053;-26
2023/12/03 03:48:39;;;;;;;2.85;2.03;;;19.70;44.00;;;;;;5086513;28;20060;-26
2023/12/03 03:51:07;;;;;;;3.70;2.00;;;20.00;63.80;;;;;;5093218;28;20386;-26
2023/12/03 03:53:34;;;;;;;3.22;2.28;;;20.20;64.20;;;;;;5093774;28;20638;-26
2023/12/03 03:56:07;;;;;;;3.42;2.25;;;19.80;44.00;;;;;;5093177;28;20688;-26
2023/12/03 03:58:34;;;;;;;3.00;2.40;;;19.80;54.40;;;;;;5093444;28;20448;-27
2023/12/03 04:01:01;;;;;;;3.38;2.50;;;;;;;;;;5092672;28;20538;-26
2023/12/03 04:03:28;;;;;;;3.30;2.58;;;20.00;49.30;;;;;;5093157;28;20420;-27
2023/12/03 04:05:56;;;;;;;5.25;3.10;;;19.90;63.80;;;;;;5074455;28;20056;-26
2023/12/03 04:08:23;;;;;;;5.15;3.17;;;19.90;64.10;;;;;;5055173;28;20052;-26
2023/12/03 04:10:50;;;;;;;4.72;3.20;;;;;;;;;;5072426;28;20551;-28
2023/12/03 04:13:17;;;;;;;5.45;3.42;;;19.70;49.00;;;;;;5072867;28;20448;-28
2023/12/03 04:15:43;;;;;;;6.32;4.03;;;20.80;64.60;;;;;;5072677;28;20106;-26
2023/12/03 04:18:10;;;;;;;5.68;3.85;;;19.90;58.00;;;;;;5072468;28;20057;-26
2023/12/03 04:20:37;;;;;;;6.45;4.10;;;19.70;63.70;;;;;;5073594;28;20109;-26
2023/12/03 04:23:05;;;;;;;6.75;4.20;;;19.90;43.90;;;;;;5072774;28;20060;-29
2023/12/03 04:25:32;;;;;;;6.50;4.05;;;;;;;;;;5072599;28;20094;-28
2023/12/03 04:27:59;;;;;;;6.80;4.38;;;;;;;;;;5072600;28;20044;-27
2023/12/03 04:30:26;;;;;;;5.60;3.88;;;20.00;47.00;;;;;;5072113;28;20106;-27
2023/12/03 04:32:53;;;;;;;6.68;4.35;;;;;;;;;;5072136;28;20126;-26
2023/12/03 04:35:21;;;;;;;6.63;4.63;;;;;;;;;;5072618;28;20048;-28
2023/12/03 04:37:47;;;;;;;7.15;4.22;;;20.40;64.10;;;;;;5081892;28;20049;-26
2023/12/03 04:40:16;;;;;;;6.47;4.30;;;19.90;43.90;;;;;;5091942;28;20071;-29
2023/12/03 04:42:43;;;;;;;7.95;4.80;;;20.00;62.30;;;;;;5092268;28;20097;-26
2023/12/03 04:45:11;;;;;;;7.32;4.80;;;;;;;;;;5092010;28;20429;-26
2023/12/03 04:47:38;;;;;;;5.80;4.20;;;20.00;63.60;;;;;;5092512;28;20098;-27
2023/12/03 04:50:06;;;;;;;6.00;4.15;;;20.00;63.60;;;;;;5092014;28;20056;-26
2023/12/03 04:52:32;;;;;;;6.97;4.65;;;20.00;63.60;;;;;;5092629;28;20105;-28
2023/12/03 04:54:59;;;;;;;5.95;4.38;;;19.20;49.10;;;;;;5080567;28;20467;-27
2023/12/03 04:57:27;;;;;;;6.10;4.15;;;20.00;43.90;;;;;;5071841;28;20555;-26
2023/12/03 04:59:54;;;;;;;7.95;4.40;;;20.00;64.00;;;;;;5071179;28;20459;-26
2023/12/03 05:02:21;;;;;;;6.10;4.22;;;;;;;;;;5071776;28;20493;-29
2023/12/03 05:04:48;;;;;;;6.20;4.25;;;20.00;63.90;;;;;;5072000;28;20559;-26
2023/12/03 05:07:15;;;;;;;6.45;4.65;;;;;;;;;;5071967;28;20052;-26
2023/12/03 05:09:43;;;;;;;6.95;4.45;;;;;;;;;;5071474;28;20048;-27
2023/12/03 05:12:10;;;;;;;5.10;3.95;;;;;;;;;;5072875;28;20040;-30
2023/12/03 05:14:38;;;;;;;6.22;4.55;;;21.30;64.90;;;;;;5071830;28;20052;-26
2023/12/03 05:17:05;;;;;;;6.57;4.47;;;19.60;64.10;;;;;;5071603;28;20501;-26
2023/12/03 05:19:34;;;;;;;6.28;4.10;;;;;;;;;;5071552;28;20052;-26
2023/12/03 05:22:00;;;;;;;7.72;4.68;;;20.10;48.00;;;;;;5071581;28;20044;-27
2023/12/03 05:24:27;;;;;;;6.90;4.40;;;19.80;63.50;;;;;;5084026;28;20040;-26
2023/12/03 05:26:54;;;;;;;4.80;3.60;;;20.00;62.00;;;;;;5090679;28;20106;-26
2023/12/03 05:29:22;;;;;;;5.93;4.03;;;19.60;63.50;;;;;;5071408;28;20044;-26
2023/12/03 05:31:50;;;;;;;6.43;4.13;;;20.10;60.60;;;;;;5071535;28;20120;-26
2023/12/03 05:34:17;;;;;;;5.28;4.10;;;20.00;63.80;;;;;;5071626;28;20048;-26
2023/12/03 05:36:43;;;;;;;5.97;4.30;;;20.10;63.90;;;;;;5078563;28;20052;-26
2023/12/03 05:39:10;;;;;;;5.28;3.90;;;20.10;63.30;;;;;;5091058;28;20047;-26
2023/12/03 05:41:39;;;;;;;5.10;3.70;;;20.10;63.40;;;;;;5091606;28;20082;-27
2023/12/03 05:44:06;;;;;;;5.97;3.97;;;;;;;;;;5085276;28;20040;-26
2023/12/03 05:46:33;;;;;;;4.93;3.80;;;20.10;58.70;;;;;;5071506;28;20070;-26
2023/12/03 05:49:01;;;;;;;5.18;3.92;;;20.00;64.10;;;;;;5071464;28;20053;-26
2023/12/03 05:51:28;;;;;;;5.40;4.18;;;20.00;49.40;;;;;;5071189;28;20059;-26
2023/12/03 05:53:55;;;;;;;4.72;3.67;;;20.40;44.40;;;;;;5071541;28;20466;-26
2023/12/03 05:56:22;;;;;;;4.90;3.80;;;21.10;64.80;;;;;;5071357;28;20539;-26
2023/12/03 05:58:48;;;;;;;5.35;4.07;;;20.00;64.10;;;;;;5071370;28;20044;-25
2023/12/03 06:01:22;;;;;;;5.65;3.95;;;20.00;61.60;;;;;;5074971;28;20045;-26
2023/12/03 06:03:50;;;;;;;4.80;3.67;;;;;;;;;;5075391;28;20444;-26
2023/12/03 06:06:18;;;;;;;4.20;3.25;;;20.00;63.50;;;;;;5071377;28;20048;-26
2023/12/03 06:08:45;;;;;;;4.75;3.80;;;19.90;63.80;;;;;;5070897;28;20053;-26
2023/12/03 06:11:12;;;;;;;4.38;3.35;;;20.00;57.50;;;;;;5072528;28;20045;-26
2023/12/03 06:13:38;;;;;;;4.55;3.65;;;20.10;59.40;;;;;;5075200;28;20448;-26
2023/12/03 06:16:06;;;;;;;5.40;3.97;;;20.00;43.70;;;;;;5075928;28;20493;-27
2023/12/03 06:18:33;;;;;;;4.65;3.40;;;21.10;57.40;;;;;;5081128;28;20052;-26
2023/12/03 06:21:00;;;;;;;5.03;3.83;;;19.80;59.70;;;;;;5090962;28;20052;-27
2023/12/03 06:23:28;;;;;;;4.07;3.38;;;20.20;54.30;;;;;;5095056;28;20463;-27
2023/12/03 06:25:55;;;;;;;4.55;3.50;;;19.90;53.60;;;;;;5095324;28;20053;-26
2023/12/03 06:28:22;;;;;;;4.63;3.63;;;19.90;44.90;;;;;;5092459;28;20089;-27
2023/12/03 06:30:49;;;;;;;4.43;3.25;;;;;;;;;;5094588;28;20442;-27
2023/12/03 06:33:18;;;;;;;4.25;3.20;;;;;;;;;;5087964;28;20449;-27
2023/12/03 06:35:45;;;;;;;4.40;3.50;;;20.10;43.80;;;;;;5094277;28;20044;-26
2023/12/03 06:38:12;;;;;;;4.88;3.63;;;20.00;46.50;;;;;;5094353;28;20040;-27
2023/12/03 06:40:41;;;;;;;4.65;3.60;;;19.70;63.60;;;;;;5094690;28;20044;-26
2023/12/03 06:43:09;;;;;;;4.15;3.33;;;;;;;;;;5095069;28;20060;-30
2023/12/03 06:45:36;;;;;;;3.85;3.08;;;20.00;64.00;;;;;;5094550;28;20417;-26
2023/12/03 06:48:02;;;;;;;4.28;2.97;;;20.00;51.60;;;;;;5094823;28;20047;-26
2023/12/03 06:50:29;;;;;;;4.65;3.67;;;20.20;44.80;;;;;;5081669;28;20044;-26
2023/12/03 06:52:56;;;;;;;3.95;2.90;;;;;;;;;;5074067;28;20101;-26
2023/12/03 06:55:23;;;;;;;3.53;2.83;;;20.10;63.90;;;;;;5074589;28;20101;-26
2023/12/03 06:57:52;;;;;;;4.13;3.15;;;20.00;63.90;;;;;;5074384;28;20098;-26
2023/12/03 07:00:19;;;;;;;4.55;3.35;;;20.20;51.80;;;;;;5073980;28;20109;-27
2023/12/03 07:02:46;;;;;;;3.80;3.00;;;20.10;64.10;;;;;;5074200;28;20266;-26
2023/12/03 07:05:13;;;;;;;4.13;3.17;;;20.30;54.60;;;;;;5074168;28;20489;-26
2023/12/03 07:07:40;;;;;;;3.97;3.22;;;20.00;63.50;;;;;;5075259;28;20049;-26
2023/12/03 07:10:08;;;;;;;4.25;3.22;;;20.10;43.80;;;;;;5073899;28;20094;-29
2023/12/03 07:12:35;;;;;;;4.60;3.38;;;;;;;;;;5073804;28;20076;-27
2023/12/03 07:15:04;;;;;;;4.68;3.65;;;20.00;63.90;;;;;;5074016;28;20102;-26
2023/12/03 07:17:31;;;;;;;4.20;3.22;;;;;;;;;;5073893;28;20106;-27
2023/12/03 07:19:58;;;;;;;4.47;3.53;;;19.20;63.40;;;;;;5073771;28;20048;-26
2023/12/03 07:22:25;;;;;;;4.35;3.42;;;;;;;;;;5073145;28;20113;-31
2023/12/03 07:24:53;;;;;;;4.75;3.53;;;20.80;63.80;;;;;;5074786;28;20044;-26
2023/12/03 07:27:20;;;;;;;4.10;3.22;;;19.00;62.80;;;;;;5073953;28;20490;-26
2023/12/03 07:29:47;;;;;;;4.88;3.53;;;20.10;63.60;;;;;;5073617;28;20079;-28
2023/12/03 07:32:15;;;;;;;4.95;3.60;;;20.00;45.30;;;;;;5074379;28;20120;-27
2023/12/03 07:34:42;;;;;;;4.68;3.67;;;20.10;47.20;;;;;;5093783;28;20105;-27
2023/12/03 07:37:09;;;;;;;5.47;4.05;;;19.20;63.00;;;;;;5093376;28;20056;-26
2023/12/03 07:39:38;;;;;;;4.45;3.45;;;;;;;;;;5089910;28;20097;-27
2023/12/03 07:42:06;;;;;;;5.53;3.78;;;20.00;54.70;;;;;;5093424;28;20076;-26
2023/12/03 07:44:33;;;;;;;4.55;3.60;;;20.10;63.50;;;;;;5093456;28;20465;-26
2023/12/03 07:47:00;;;;;;;4.90;3.58;;;19.20;63.10;;;;;;5093747;28;20083;-26
2023/12/03 07:49:28;;;;;;;5.47;3.95;;;20.00;56.70;;;;;;5093463;28;20047;-27
2023/12/03 07:51:55;;;;;;;5.40;3.90;;;20.10;54.00;;;;;;5093673;28;20105;-27
2023/12/03 07:54:21;;;;;;;5.90;4.05;;;19.90;63.80;;;;;;5093682;28;20044;-26
2023/12/03 07:56:49;;;;;;;5.88;4.00;;;;;;;;;;5091478;28;20102;-27
2023/12/03 07:59:15;;;;;;;6.28;4.03;;;19.90;63.40;;;;;;5093171;28;20052;-26
2023/12/03 08:01:43;;;;;;;5.38;3.60;;;;;;;;;;5093510;28;20090;-29
2023/12/03 08:04:09;;;;;;;5.80;3.80;;;20.10;50.20;;;;;;5093331;28;20055;-26
2023/12/03 08:06:38;;;;;;;5.13;3.70;;;20.10;63.40;;;;;;5093403;28;20055;-26
2023/12/03 08:09:05;;;;;;;6.15;4.22;;;;;;;;;;5093066;28;20048;-27
2023/12/03 08:11:32;;;;;;;5.70;4.10;;;20.20;47.90;;;;;;5092875;28;20048;-26
2023/12/03 08:13:58;;;;;;;4.95;3.85;;;20.00;63.40;;;;;;5086391;28;20109;-26
2023/12/03 08:16:26;;;;;;;5.60;3.85;;;20.20;62.70;;;;;;5092993;28;20055;-27
2023/12/03 08:18:52;;;;;;;5.63;3.80;;;20.00;63.50;;;;;;5085577;28;20040;-27
2023/12/03 08:21:19;;;;;;;5.70;4.03;;;20.10;50.50;;;;;;5081817;28;20045;-27
2023/12/03 08:23:47;;;;;;;5.93;4.25;;;21.20;64.50;;;;;;5082029;28;20056;-26
2023/12/03 08:26:14;;;;;;;6.15;4.30;;;20.00;54.80;;;;;;5078812;28;20102;-26
2023/12/03 08:28:42;;;;;;;6.38;4.10;;;;;;;;;;5074029;28;20497;-29
2023/12/03 08:31:10;;;;;;;7.47;4.00;;;;;;;;;;5072902;28;20131;-26
2023/12/03 08:33:37;;;;;;;6.60;4.22;;;20.10;63.90;;;;;;5079738;28;20040;-25
2023/12/03 08:36:04;;;;;;;6.43;4.15;;;19.70;44.00;;;;;;5081574;28;20413;-28
2023/12/03 08:38:31;;;;;;;6.45;4.30;;;20.30;44.70;;;;;;5084037;28;20048;-26
2023/12/03 08:40:59;;;;;;;6.53;4.30;;;20.20;43.80;;;;;;5092356;28;20048;-29
2023/12/03 08:43:26;;;;;;;5.95;3.83;;;20.20;45.20;;;;;;5092796;28;20048;-28
2023/12/03 08:45:53;;;;;;;6.90;4.50;;;21.10;63.80;;;;;;5090584;28;20117;-26
2023/12/03 08:48:19;;;;;;;6.53;4.30;;;20.30;59.60;;;;;;5092069;28;20048;-25
2023/12/03 08:50:46;;;;;;;7.38;4.25;;;21.10;61.10;;;;;;5090296;28;20101;-27
2023/12/03 08:53:13;;;;;;;6.55;4.50;;;20.20;51.10;;;;;;5092069;28;20054;-26
2023/12/03 08:55:40;;;;;;;6.78;4.03;;;;;;;;;;5085151;28;20455;-29
2023/12/03 08:58:09;;;;;;;7.10;3.60;;;20.40;63.50;;;;;;5092016;28;20484;-31
2023/12/03 09:00:36;;;;;;;5.85;4.10;;;;;;;;;;5091500;28;20447;-31
2023/12/03 09:03:03;;;;;;;5.88;3.90;;;20.50;59.30;;;;;;5082525;28;20037;-25
2023/12/03 09:05:30;;;;;;;8.23;4.22;;;21.20;59.90;;;;;;5080831;28;20048;-26
2023/12/03 09:07:56;;;;;;;6.78;3.85;;;20.80;44.00;;;;;;5063065;28;21093;-29
2023/12/03 09:10:23;;;;;;;5.82;3.97;;;20.50;49.40;;;;;;5082163;28;20039;-26
2023/12/03 09:12:51;;;;;;;6.07;4.10;;;;;;;;;;5081281;28;20109;-28
2023/12/03 09:15:20;;;;;;;5.43;3.90;;;21.00;63.50;;;;;;5085793;28;20044;-26
2023/12/03 09:17:47;;;;;;;5.50;3.78;;;;;;;;;;5071510;28;20125;-30
2023/12/03 09:20:14;;;;;;;6.00;3.72;;;;;;;;;;5070622;28;20047;-31
2023/12/03 09:22:41;;;;;;;5.60;3.80;;;20.70;43.90;;;;;;5071396;28;20405;-29
2023/12/03 09:25:08;;;;;;;5.38;3.80;;;20.80;63.30;;;;;;5073952;28;20501;-31
2023/12/03 09:27:35;;;;;;;7.28;3.83;;;;;;;;;;5080681;28;20631;-29
2023/12/03 09:30:04;;;;;;;6.38;4.05;;;21.70;63.80;;;;;;5077690;28;20135;-26
2023/12/03 09:32:32;;;;;;;5.40;3.65;;;20.70;63.20;;;;;;5081168;28;20076;-26
2023/12/03 09:34:59;;;;;;;6.60;3.88;;;;;;;;;;5080701;28;20125;-29
2023/12/03 09:37:26;;;;;;;6.03;3.40;;;20.80;63.10;;;;;;5080253;28;20045;-29
2023/12/03 09:39:53;;;;;;;6.07;3.80;;;20.90;63.00;;;;;;5083717;28;20101;-31
2023/12/03 09:42:20;;;;;;;5.55;3.53;;;20.90;59.20;;;;;;5082371;28;20045;-29
2023/12/03 09:44:49;;;;;;;5.07;3.60;;;20.90;62.80;;;;;;5080401;28;20053;-27
2023/12/03 09:47:16;;;;;;;6.65;3.90;;;;;;;;;;5088259;28;20466;-27
2023/12/03 09:49:46;;;;;;;4.90;3.22;;;20.90;63.00;;;;;;5079814;28;20044;-26
2023/12/03 09:52:13;;;;;;;5.60;3.80;;;21.80;63.20;;;;;;5078682;28;20121;-25
2023/12/03 09:54:40;;;;;;;6.57;3.75;;;;;;;;;;5074958;28;20052;-27
2023/12/03 09:57:08;;;;;;;6.05;3.63;;;;;;;;;;5087719;28;20056;-28
2023/12/03 09:59:35;;;;;;;6.35;3.60;;;21.00;62.50;;;;;;5080618;28;20094;-26
2023/12/03 10:02:02;;;;;;;4.55;3.40;;;21.90;63.40;;;;;;5075342;28;20056;-26
2023/12/03 10:04:29;;;;;;;4.57;3.20;;;21.30;53.00;;;;;;5075482;28;20486;-27
2023/12/03 10:06:57;;;;;;;5.57;3.80;;;21.20;62.90;;;;;;5075536;28;20448;-27
2023/12/03 10:09:24;;;;;;;7.00;3.75;;;;;;;;;;5076554;28;20098;-29
2023/12/03 10:11:53;;;;;;;5.95;3.75;;;21.20;62.70;;;;;;5080857;28;20048;-33
2023/12/03 10:14:20;;;;;;;5.95;3.40;;;21.20;62.40;;;;;;5081495;28;20099;-32
2023/12/03 10:16:50;;;;;;;5.82;3.45;;;21.10;43.10;;;;;;5075545;28;20063;-26
2023/12/03 10:19:22;;;;;;;5.05;3.50;;;21.20;43.20;;;;;;5089104;28;20048;-29
2023/12/03 10:21:50;;;;;;;5.25;3.70;;;21.20;62.40;;;;;;5095204;28;20527;-26
2023/12/03 10:24:19;;;;;;;5.32;3.65;;;21.20;43.20;;;;;;5095434;28;20500;-30
2023/12/03 10:26:53;;;;;;;5.32;3.78;;;21.50;62.80;;;;;;5095394;28;20059;-26
2023/12/03 10:29:23;;;;;;;4.93;3.33;;;;;;;;;;5095198;28;20044;-32
2023/12/03 10:31:50;;;;;;;5.43;3.55;;;21.30;62.40;;;;;;5095295;28;20434;-31
2023/12/03 10:34:16;;;;;;;5.40;3.88;;;21.30;62.80;;;;;;5094859;28;20052;-32
2023/12/03 10:36:44;;;;;;;6.10;4.10;;;;;;;;;;5094707;28;20052;-30
2023/12/03 10:39:12;;;;;;;4.82;3.33;;;;;;;;;;5094927;28;20501;-29
2023/12/03 10:41:41;;;;;;;5.90;3.50;;;21.30;43.10;;;;;;5094627;28;20513;-28
2023/12/03 10:44:08;;;;;;;6.40;3.88;;;;;;;;;;5095191;28;20098;-29
2023/12/03 10:46:41;;;;;;;5.40;3.50;;;21.00;62.40;;;;;;5094990;28;20052;-32
2023/12/03 10:49:08;;;;;;;6.75;3.78;;;20.60;61.70;;;;;;5094910;28;20048;-32
2023/12/03 10:51:35;;;;;;;6.20;3.88;;;21.40;62.60;;;;;;5076380;28;20591;-32
2023/12/03 10:54:02;;;;;;;5.25;3.60;;;21.40;54.20;;;;;;5094489;28;20040;-26
2023/12/03 10:56:29;;;;;;;6.50;4.13;;;21.30;62.40;;;;;;5094676;28;20104;-27
2023/12/03 10:58:57;;;;;;;6.90;4.40;;;21.20;55.00;;;;;;5092727;28;20089;-27
2023/12/03 11:01:25;;;;;;;6.40;4.30;;;21.50;61.10;;;;;;5091033;28;20052;-31
2023/12/03 11:03:56;;;;;;;6.10;4.10;;;21.30;62.20;;;;;;5094715;28;20056;-32
2023/12/03 11:06:23;;;;;;;6.97;4.43;;;21.30;56.50;;;;;;5094162;28;20040;-30
2023/12/03 11:08:51;;;;;;;6.40;4.20;;;21.40;62.40;;;;;;5094717;28;20059;-31
2023/12/03 11:11:19;;;;;;;6.40;4.13;;;21.60;43.10;;;;;;5094281;28;20054;-30
2023/12/03 11:13:46;;;;;;;5.97;4.05;;;21.30;62.10;;;;;;5093944;28;20550;-32
2023/12/03 11:16:14;;;;;;;6.80;4.50;;;21.30;47.50;;;;;;5094344;28;20515;-33
2023/12/03 11:18:42;;;;;;;6.80;4.47;;;22.10;54.60;;;;;;5094072;28;20056;-30
2023/12/03 11:21:13;;;;;;;6.38;4.43;;;21.50;43.00;;;;;;5093759;28;20520;-32
2023/12/03 11:23:44;;;;;;;7.03;4.32;;;21.60;62.40;;;;;;5094292;28;20109;-32
2023/12/03 11:26:13;;;;;;;6.55;4.35;;;21.60;62.00;;;;;;5077248;28;20540;-27
2023/12/03 11:28:50;;;;;;;5.95;4.32;;;21.50;42.90;;;;;;5073847;28;20167;-31
2023/12/03 11:31:19;;;;;;;6.53;4.47;;;21.80;62.20;;;;;;5073713;28;20052;-30
2023/12/03 11:33:50;;;;;;;7.22;4.35;;;21.50;62.10;;;;;;5073514;28;20452;-31
2023/12/03 11:36:18;;;;;;;7.05;4.90;;;;;;;;;;5074909;28;20093;-30
2023/12/03 11:38:44;;;;;;;5.78;4.22;;;21.70;61.90;;;;;;5082249;28;20052;-31
2023/12/03 11:41:11;;;;;;;7.28;4.80;;;21.80;50.40;;;;;;5081352;28;20044;-31
2023/12/03 11:43:38;;;;;;;6.72;5.05;;;22.10;62.00;;;;;;5084184;28;20082;-31
2023/12/03 11:46:06;;;;;;;6.20;4.30;;;;;;;;;;5081739;28;20123;-30
2023/12/03 11:48:34;;;;;;;7.30;4.53;;;22.00;62.30;;;;;;5083254;28;20047;-32
2023/12/03 11:51:02;;;;;;;7.88;4.53;;;;;;;;;;5084042;28;20056;-28
2023/12/03 11:53:37;;;;;;;6.20;4.72;;;21.70;42.80;;;;;;5085237;28;20097;-31
2023/12/03 11:56:06;;;;;;;6.15;4.28;;;21.70;42.80;;;;;;5093502;28;20044;-29
2023/12/03 11:58:33;;;;;;;5.82;4.35;;;21.90;54.60;;;;;;5093611;28;20505;-32
2023/12/03 12:01:00;;;;;;;6.90;4.53;;;;;;;;;;5085629;28;20052;-29
2023/12/03 12:03:27;;;;;;;6.53;4.10;;;21.70;61.70;;;;;;5073158;28;20056;-31
2023/12/03 12:05:55;;;;;;;6.13;4.45;;;21.70;42.80;;;;;;5080761;28;20113;-28
2023/12/03 12:08:23;;;;;;;6.90;4.65;;;21.20;42.50;;;;;;5083360;28;20044;-28
2023/12/03 12:10:50;;;;;;;6.60;4.50;;;21.40;61.40;;;;;;5081457;28;20094;-33
2023/12/03 12:13:17;;;;;;;7.03;4.18;;;22.20;57.90;;;;;;5082536;28;20094;-31
2023/12/03 12:15:44;;;;;;;6.10;4.50;;;22.40;62.20;;;;;;5080829;28;20048;-32
2023/12/03 12:18:11;;;;;;;7.32;4.78;;;21.80;59.40;;;;;;5075335;28;20048;-32
2023/12/03 12:20:38;;;;;;;6.43;4.35;;;22.20;61.80;;;;;;5079473;28;20485;-31
2023/12/03 12:23:06;;;;;;;6.43;4.60;;;21.70;53.50;;;;;;5080677;28;20090;-30
2023/12/03 12:25:33;;;;;;;5.57;4.30;;;21.80;59.00;;;;;;5082277;28;20102;-31
2023/12/03 12:28:00;;;;;;;5.60;4.38;;;21.80;61.90;;;;;;5083736;28;20101;-31
2023/12/03 12:30:28;;;;;;;8.20;4.78;;;21.80;42.70;;;;;;5080759;28;20052;-29
2023/12/03 12:32:55;;;;;;;7.40;4.40;;;21.80;44.60;;;;;;5082402;28;20089;-26
2023/12/03 12:35:22;;;;;;;9.07;4.88;;;;;;;;;;5079722;28;20048;-26
2023/12/03 12:37:59;;;;;;;6.45;4.60;;;21.90;42.60;;;;;;5087417;28;20409;-28
2023/12/03 12:40:27;;;;;;;7.22;4.50;;;21.90;42.60;;;;;;5090213;28;20102;-26
2023/12/03 12:43:04;;;;;;;7.80;4.80;;;21.90;42.60;;;;;;5090436;28;20462;-28
2023/12/03 12:45:32;;;;;;;8.65;4.70;;;21.80;47.70;;;;;;5090395;28;20080;-27
2023/12/03 12:47:59;;;;;;;7.60;4.82;;;;;;;;;;5090433;28;20086;-29
2023/12/03 12:50:33;;;;;;;6.28;4.38;;;21.70;61.30;;;;;;5089688;28;20558;-27
2023/12/03 12:53:00;;;;;;;6.53;4.67;;;21.80;61.90;;;;;;5090921;28;20055;-27
2023/12/03 12:55:29;;;;;;;5.63;4.43;;;21.80;61.50;;;;;;5092462;28;20097;-27
2023/12/03 12:57:56;;;;;;;6.55;4.53;;;21.90;58.10;;;;;;5092306;28;20055;-27
2023/12/03 13:00:23;;;;;;;7.25;4.63;;;21.90;62.10;;;;;;5092424;28;20568;-27
2023/12/03 13:02:50;;;;;;;6.72;4.55;;;21.60;57.70;;;;;;5086920;28;20099;-27
2023/12/03 13:05:17;;;;;;;6.70;4.78;;;21.60;62.20;;;;;;5071975;28;20048;-26
2023/12/03 13:07:44;;;;;;;7.05;5.00;;;;;;;;;;5072272;28;20117;-28
2023/12/03 13:10:11;;;;;;;7.45;4.47;;;21.50;62.00;;;;;;5075848;28;20048;-26